sensor_id;sensor_type;location;lat;lon;timestamp;temperature;humidity
13569;DHT22;6856;51.460;7.158;2024-01-15T00:00:52;3.90;73.70
13569;DHT22;6856;51.460;7.158;2024-01-15T00:03:26;3.90;73.70
13569;DHT22;6856;51.460;7.158;2024-01-15T00:06:01;3.90;73.70
13569;DHT22;6856;51.460;7.158;2024-01-15T00:08:36;3.90;73.70
13569;DHT22;6856;51.460;7.158;2024-01-15T00:11:11;4.00;73.80
13569;DHT22;6856;51.460;7.158;2024-01-15T00:13:45;4.00;73.80
13569;DHT22;6856;51.460;7.158;2024-01-15T00:16:19;4.00;73.80
13569;DHT22;6856;51.460;7.158;2024-01-15T00:18:53;4.00;73.80
13569;DHT22;6856;51.460;7.158;2024-01-15T00:21:28;4.00;73.80
13569;DHT22;6856;51.460;7.158;2024-01-15T00:24:02;4.00;73.80
13569;DHT22;6856;51.460;7.158;2024-01-15T00:26:36;4.00;73.90
13569;DHT22;6856;51.460;7.158;2024-01-15T00:29:10;4.00;73.80
13569;DHT22;6856;51.460;7.158;2024-01-15T00:31:45;4.00;73.80
13569;DHT22;6856;51.460;7.158;2024-01-15T00:34:19;4.00;73.90
13569;DHT22;6856;51.460;7.158;2024-01-15T00:36:55;4.20;73.80
13569;DHT22;6856;51.460;7.158;2024-01-15T00:39:29;4.10;73.80
13569;DHT22;6856;51.460;7.158;2024-01-15T00:42:04;4.10;74.00
13569;DHT22;6856;51.460;7.158;2024-01-15T00:44:39;4.10;74.00
13569;DHT22;6856;51.460;7.158;2024-01-15T00:47:14;4.10;73.90
13569;DHT22;6856;51.460;7.158;2024-01-15T00:49:48;4.10;73.90
13569;DHT22;6856;51.460;7.158;2024-01-15T00:52:23;4.10;73.80
13569;DHT22;6856;51.460;7.158;2024-01-15T00:54:57;4.10;73.80
13569;DHT22;6856;51.460;7.158;2024-01-15T00:57:34;4.10;73.80
13569;DHT22;6856;51.460;7.158;2024-01-15T01:00:09;4.10;73.80
13569;DHT22;6856;51.460;7.158;2024-01-15T01:02:44;4.10;73.90
13569;DHT22;6856;51.460;7.158;2024-01-15T01:05:18;4.10;73.80
13569;DHT22;6856;51.460;7.158;2024-01-15T01:07:54;4.10;73.70
13569;DHT22;6856;51.460;7.158;2024-01-15T01:10:28;4.30;73.80
13569;DHT22;6856;51.460;7.158;2024-01-15T01:13:02;4.10;73.80
13569;DHT22;6856;51.460;7.158;2024-01-15T01:15:48;4.10;73.80
13569;DHT22;6856;51.460;7.158;2024-01-15T01:18:30;4.10;73.70
13569;DHT22;6856;51.460;7.158;2024-01-15T01:21:05;4.10;73.80
13569;DHT22;6856;51.460;7.158;2024-01-15T01:23:40;4.10;73.70
13569;DHT22;6856;51.460;7.158;2024-01-15T01:26:16;4.10;73.60
13569;DHT22;6856;51.460;7.158;2024-01-15T01:28:50;4.10;73.80
13569;DHT22;6856;51.460;7.158;2024-01-15T01:31:24;4.10;73.60
13569;DHT22;6856;51.460;7.158;2024-01-15T01:33:59;4.10;73.80
13569;DHT22;6856;51.460;7.158;2024-01-15T01:36:33;4.10;73.70
13569;DHT22;6856;51.460;7.158;2024-01-15T01:39:10;4.10;73.80
13569;DHT22;6856;51.460;7.158;2024-01-15T01:41:44;4.10;73.60
13569;DHT22;6856;51.460;7.158;2024-01-15T01:44:18;4.10;73.70
13569;DHT22;6856;51.460;7.158;2024-01-15T01:46:52;4.10;73.70
13569;DHT22;6856;51.460;7.158;2024-01-15T01:49:28;4.10;73.80
13569;DHT22;6856;51.460;7.158;2024-01-15T01:52:03;4.10;73.80
13569;DHT22;6856;51.460;7.158;2024-01-15T01:54:43;4.10;73.80
13569;DHT22;6856;51.460;7.158;2024-01-15T01:57:18;4.10;73.90
13569;DHT22;6856;51.460;7.158;2024-01-15T01:59:53;4.10;73.80
13569;DHT22;6856;51.460;7.158;2024-01-15T02:02:31;4.20;73.90
13569;DHT22;6856;51.460;7.158;2024-01-15T02:05:07;4.20;74.60
13569;DHT22;6856;51.460;7.158;2024-01-15T02:07:41;4.20;73.90
13569;DHT22;6856;51.460;7.158;2024-01-15T02:10:18;4.20;73.80
13569;DHT22;6856;51.460;7.158;2024-01-15T02:12:52;4.40;73.90
13569;DHT22;6856;51.460;7.158;2024-01-15T02:15:27;4.20;73.80
13569;DHT22;6856;51.460;7.158;2024-01-15T02:18:03;4.20;73.80
13569;DHT22;6856;51.460;7.158;2024-01-15T02:20:40;4.20;73.80
13569;DHT22;6856;51.460;7.158;2024-01-15T02:23:17;4.20;73.70
13569;DHT22;6856;51.460;7.158;2024-01-15T02:25:53;4.20;73.70
13569;DHT22;6856;51.460;7.158;2024-01-15T02:28:30;4.20;73.80
13569;DHT22;6856;51.460;7.158;2024-01-15T02:31:06;4.30;73.80
13569;DHT22;6856;51.460;7.158;2024-01-15T02:33:44;4.20;73.60
13569;DHT22;6856;51.460;7.158;2024-01-15T02:36:19;4.20;73.80
13569;DHT22;6856;51.460;7.158;2024-01-15T02:38:55;4.20;73.70
13569;DHT22;6856;51.460;7.158;2024-01-15T02:41:28;4.20;73.50
13569;DHT22;6856;51.460;7.158;2024-01-15T02:44:05;4.20;73.60
13569;DHT22;6856;51.460;7.158;2024-01-15T02:46:41;4.20;73.70
13569;DHT22;6856;51.460;7.158;2024-01-15T02:49:15;4.20;73.50
13569;DHT22;6856;51.460;7.158;2024-01-15T02:51:49;4.20;73.50
13569;DHT22;6856;51.460;7.158;2024-01-15T02:54:25;4.20;73.50
13569;DHT22;6856;51.460;7.158;2024-01-15T02:56:58;4.20;73.50
13569;DHT22;6856;51.460;7.158;2024-01-15T02:59:35;4.20;73.40
13569;DHT22;6856;51.460;7.158;2024-01-15T03:02:10;4.20;73.40
13569;DHT22;6856;51.460;7.158;2024-01-15T03:04:44;4.20;73.40
13569;DHT22;6856;51.460;7.158;2024-01-15T03:07:18;4.20;73.50
13569;DHT22;6856;51.460;7.158;2024-01-15T03:09:54;4.20;73.30
13569;DHT22;6856;51.460;7.158;2024-01-15T03:12:28;4.20;73.30
13569;DHT22;6856;51.460;7.158;2024-01-15T03:15:02;4.20;73.30
13569;DHT22;6856;51.460;7.158;2024-01-15T03:17:37;4.20;73.50
13569;DHT22;6856;51.460;7.158;2024-01-15T03:20:11;4.20;73.20
13569;DHT22;6856;51.460;7.158;2024-01-15T03:22:45;4.30;73.40
13569;DHT22;6856;51.460;7.158;2024-01-15T03:25:20;4.20;73.30
13569;DHT22;6856;51.460;7.158;2024-01-15T03:27:55;4.20;73.30
13569;DHT22;6856;51.460;7.158;2024-01-15T03:30:29;4.20;73.40
13569;DHT22;6856;51.460;7.158;2024-01-15T03:33:03;4.20;73.40
13569;DHT22;6856;51.460;7.158;2024-01-15T03:35:37;4.20;73.40
13569;DHT22;6856;51.460;7.158;2024-01-15T03:38:10;4.20;73.40
13569;DHT22;6856;51.460;7.158;2024-01-15T03:40:45;4.20;73.30
13569;DHT22;6856;51.460;7.158;2024-01-15T03:43:20;4.20;73.40
13569;DHT22;6856;51.460;7.158;2024-01-15T03:45:55;4.20;73.30
13569;DHT22;6856;51.460;7.158;2024-01-15T03:48:29;4.20;73.20
13569;DHT22;6856;51.460;7.158;2024-01-15T03:51:04;4.20;73.30
13569;DHT22;6856;51.460;7.158;2024-01-15T03:53:38;4.20;73.40
13569;DHT22;6856;51.460;7.158;2024-01-15T03:56:15;4.20;73.40
13569;DHT22;6856;51.460;7.158;2024-01-15T03:58:49;4.30;73.40
13569;DHT22;6856;51.460;7.158;2024-01-15T04:01:24;4.40;73.40
13569;DHT22;6856;51.460;7.158;2024-01-15T04:03:58;4.20;73.30
13569;DHT22;6856;51.460;7.158;2024-01-15T04:06:35;4.20;73.20
13569;DHT22;6856;51.460;7.158;2024-01-15T04:09:09;4.30;73.30
13569;DHT22;6856;51.460;7.158;2024-01-15T04:11:45;4.20;73.20
13569;DHT22;6856;51.460;7.158;2024-01-15T04:14:18;4.30;73.30
13569;DHT22;6856;51.460;7.158;2024-01-15T04:16:53;4.20;73.20
13569;DHT22;6856;51.460;7.158;2024-01-15T04:19:27;4.30;73.30
13569;DHT22;6856;51.460;7.158;2024-01-15T04:22:01;4.30;73.20
13569;DHT22;6856;51.460;7.158;2024-01-15T04:24:36;4.30;73.30
13569;DHT22;6856;51.460;7.158;2024-01-15T04:27:11;4.30;73.20
13569;DHT22;6856;51.460;7.158;2024-01-15T04:29:46;4.30;73.10
13569;DHT22;6856;51.460;7.158;2024-01-15T04:32:20;4.30;73.30
13569;DHT22;6856;51.460;7.158;2024-01-15T04:34:56;4.30;73.00
13569;DHT22;6856;51.460;7.158;2024-01-15T04:37:32;4.30;73.20
13569;DHT22;6856;51.460;7.158;2024-01-15T04:40:07;4.30;73.30
13569;DHT22;6856;51.460;7.158;2024-01-15T04:42:43;4.30;73.30
13569;DHT22;6856;51.460;7.158;2024-01-15T04:45:18;4.30;73.30
13569;DHT22;6856;51.460;7.158;2024-01-15T04:47:54;4.30;73.20
13569;DHT22;6856;51.460;7.158;2024-01-15T04:50:29;4.30;73.10
13569;DHT22;6856;51.460;7.158;2024-01-15T04:53:06;4.30;73.20
13569;DHT22;6856;51.460;7.158;2024-01-15T04:55:44;4.30;73.00
13569;DHT22;6856;51.460;7.158;2024-01-15T04:58:19;4.30;73.20
13569;DHT22;6856;51.460;7.158;2024-01-15T05:00:57;4.40;73.20
13569;DHT22;6856;51.460;7.158;2024-01-15T05:03:34;4.30;73.10
13569;DHT22;6856;51.460;7.158;2024-01-15T05:06:13;4.30;73.30
13569;DHT22;6856;51.460;7.158;2024-01-15T05:08:47;4.30;73.30
13569;DHT22;6856;51.460;7.158;2024-01-15T05:11:21;4.30;73.00
13569;DHT22;6856;51.460;7.158;2024-01-15T05:13:56;4.30;73.20
13569;DHT22;6856;51.460;7.158;2024-01-15T05:16:30;4.30;73.20
13569;DHT22;6856;51.460;7.158;2024-01-15T05:19:04;4.30;73.10
13569;DHT22;6856;51.460;7.158;2024-01-15T05:21:46;4.30;73.20
13569;DHT22;6856;51.460;7.158;2024-01-15T05:24:22;4.30;73.20
13569;DHT22;6856;51.460;7.158;2024-01-15T05:27:02;4.30;73.10
13569;DHT22;6856;51.460;7.158;2024-01-15T05:29:40;4.30;73.20
13569;DHT22;6856;51.460;7.158;2024-01-15T05:32:17;4.30;73.10
13569;DHT22;6856;51.460;7.158;2024-01-15T05:34:51;4.30;73.20
13569;DHT22;6856;51.460;7.158;2024-01-15T05:37:26;4.40;73.20
13569;DHT22;6856;51.460;7.158;2024-01-15T05:40:03;4.40;73.10
13569;DHT22;6856;51.460;7.158;2024-01-15T05:42:42;4.40;73.20
13569;DHT22;6856;51.460;7.158;2024-01-15T05:45:18;4.40;73.10
13569;DHT22;6856;51.460;7.158;2024-01-15T05:47:53;4.40;72.90
13569;DHT22;6856;51.460;7.158;2024-01-15T05:50:28;4.40;73.10
13569;DHT22;6856;51.460;7.158;2024-01-15T05:53:05;4.40;72.90
13569;DHT22;6856;51.460;7.158;2024-01-15T05:55:40;4.40;73.00
13569;DHT22;6856;51.460;7.158;2024-01-15T05:58:14;4.40;73.10
13569;DHT22;6856;51.460;7.158;2024-01-15T06:00:49;4.30;72.90
13569;DHT22;6856;51.460;7.158;2024-01-15T06:03:27;4.40;72.90
13569;DHT22;6856;51.460;7.158;2024-01-15T06:06:01;4.40;73.00
13569;DHT22;6856;51.460;7.158;2024-01-15T06:08:37;4.40;73.00
13569;DHT22;6856;51.460;7.158;2024-01-15T06:11:14;4.40;73.00
13569;DHT22;6856;51.460;7.158;2024-01-15T06:13:49;4.40;72.90
13569;DHT22;6856;51.460;7.158;2024-01-15T06:16:25;4.40;73.00
13569;DHT22;6856;51.460;7.158;2024-01-15T06:18:58;4.40;72.70
13569;DHT22;6856;51.460;7.158;2024-01-15T06:21:33;4.40;72.90
13569;DHT22;6856;51.460;7.158;2024-01-15T06:24:10;4.40;72.90
13569;DHT22;6856;51.460;7.158;2024-01-15T06:26:47;4.60;73.00
13569;DHT22;6856;51.460;7.158;2024-01-15T06:29:20;4.40;72.80
13569;DHT22;6856;51.460;7.158;2024-01-15T06:31:56;4.40;72.80
13569;DHT22;6856;51.460;7.158;2024-01-15T06:34:30;4.40;72.80
13569;DHT22;6856;51.460;7.158;2024-01-15T06:37:03;4.40;72.90
13569;DHT22;6856;51.460;7.158;2024-01-15T06:39:39;4.40;73.00
13569;DHT22;6856;51.460;7.158;2024-01-15T06:42:14;4.40;72.90
13569;DHT22;6856;51.460;7.158;2024-01-15T06:44:48;4.40;72.80
13569;DHT22;6856;51.460;7.158;2024-01-15T06:47:24;4.40;72.90
13569;DHT22;6856;51.460;7.158;2024-01-15T06:49:58;4.40;72.90
13569;DHT22;6856;51.460;7.158;2024-01-15T06:52:34;4.40;73.00
13569;DHT22;6856;51.460;7.158;2024-01-15T06:55:08;4.40;73.00
13569;DHT22;6856;51.460;7.158;2024-01-15T06:57:43;4.40;73.00
13569;DHT22;6856;51.460;7.158;2024-01-15T07:00:19;4.40;72.80
13569;DHT22;6856;51.460;7.158;2024-01-15T07:02:55;4.40;73.00
13569;DHT22;6856;51.460;7.158;2024-01-15T07:05:29;4.40;72.90
13569;DHT22;6856;51.460;7.158;2024-01-15T07:08:04;4.40;72.80
13569;DHT22;6856;51.460;7.158;2024-01-15T07:10:38;4.40;73.10
13569;DHT22;6856;51.460;7.158;2024-01-15T07:13:12;4.40;73.00
13569;DHT22;6856;51.460;7.158;2024-01-15T07:15:50;4.40;72.90
13569;DHT22;6856;51.460;7.158;2024-01-15T07:18:26;4.40;73.00
13569;DHT22;6856;51.460;7.158;2024-01-15T07:21:00;4.40;72.90
13569;DHT22;6856;51.460;7.158;2024-01-15T07:23:34;4.40;72.70
13569;DHT22;6856;51.460;7.158;2024-01-15T07:26:08;4.40;72.80
13569;DHT22;6856;51.460;7.158;2024-01-15T07:28:43;4.40;73.00
13569;DHT22;6856;51.460;7.158;2024-01-15T07:31:17;4.40;72.90
13569;DHT22;6856;51.460;7.158;2024-01-15T07:33:53;4.40;72.80
13569;DHT22;6856;51.460;7.158;2024-01-15T07:36:27;4.40;72.80
13569;DHT22;6856;51.460;7.158;2024-01-15T07:39:01;4.40;72.90
13569;DHT22;6856;51.460;7.158;2024-01-15T07:41:38;4.40;73.00
13569;DHT22;6856;51.460;7.158;2024-01-15T07:44:11;4.40;72.90
13569;DHT22;6856;51.460;7.158;2024-01-15T07:46:45;4.40;72.80
13569;DHT22;6856;51.460;7.158;2024-01-15T07:49:23;4.50;72.90
13569;DHT22;6856;51.460;7.158;2024-01-15T07:51:58;4.50;72.70
13569;DHT22;6856;51.460;7.158;2024-01-15T07:54:35;4.50;73.00
13569;DHT22;6856;51.460;7.158;2024-01-15T07:57:10;4.50;72.80
13569;DHT22;6856;51.460;7.158;2024-01-15T07:59:44;4.50;72.80
13569;DHT22;6856;51.460;7.158;2024-01-15T08:02:18;4.50;72.60
13569;DHT22;6856;51.460;7.158;2024-01-15T08:04:53;4.50;72.80
13569;DHT22;6856;51.460;7.158;2024-01-15T08:07:26;4.60;72.80
13569;DHT22;6856;51.460;7.158;2024-01-15T08:10:00;4.50;72.80
13569;DHT22;6856;51.460;7.158;2024-01-15T08:12:34;4.50;72.60
13569;DHT22;6856;51.460;7.158;2024-01-15T08:15:08;4.50;72.80
13569;DHT22;6856;51.460;7.158;2024-01-15T08:17:43;4.50;72.80
13569;DHT22;6856;51.460;7.158;2024-01-15T08:20:18;4.50;72.70
13569;DHT22;6856;51.460;7.158;2024-01-15T08:22:52;4.50;72.50
13569;DHT22;6856;51.460;7.158;2024-01-15T08:25:26;4.50;72.20
13569;DHT22;6856;51.460;7.158;2024-01-15T08:28:00;4.60;72.50
13569;DHT22;6856;51.460;7.158;2024-01-15T08:30:34;4.50;72.60
13569;DHT22;6856;51.460;7.158;2024-01-15T08:33:08;4.50;72.40
13569;DHT22;6856;51.460;7.158;2024-01-15T08:35:54;4.40;72.40
13569;DHT22;6856;51.460;7.158;2024-01-15T08:38:27;4.40;72.20
13569;DHT22;6856;51.460;7.158;2024-01-15T08:41:02;4.40;72.30
13569;DHT22;6856;51.460;7.158;2024-01-15T08:43:36;4.40;72.50
13569;DHT22;6856;51.460;7.158;2024-01-15T08:46:10;4.40;72.60
13569;DHT22;6856;51.460;7.158;2024-01-15T08:48:44;4.30;72.50
13569;DHT22;6856;51.460;7.158;2024-01-15T08:51:19;4.40;72.50
13569;DHT22;6856;51.460;7.158;2024-01-15T08:53:53;4.30;72.50
13569;DHT22;6856;51.460;7.158;2024-01-15T08:56:27;4.30;72.40
13569;DHT22;6856;51.460;7.158;2024-01-15T08:59:02;4.30;72.60
13569;DHT22;6856;51.460;7.158;2024-01-15T09:01:36;4.30;72.50
13569;DHT22;6856;51.460;7.158;2024-01-15T09:04:12;4.30;72.70
13569;DHT22;6856;51.460;7.158;2024-01-15T09:06:47;4.30;72.70
13569;DHT22;6856;51.460;7.158;2024-01-15T09:09:23;4.30;72.80
13569;DHT22;6856;51.460;7.158;2024-01-15T09:11:58;4.30;72.80
13569;DHT22;6856;51.460;7.158;2024-01-15T09:14:33;4.20;72.70
13569;DHT22;6856;51.460;7.158;2024-01-15T09:17:08;4.20;72.70
13569;DHT22;6856;51.460;7.158;2024-01-15T09:19:42;4.20;72.90
13569;DHT22;6856;51.460;7.158;2024-01-15T09:22:18;4.20;72.70
13569;DHT22;6856;51.460;7.158;2024-01-15T09:24:52;4.20;73.00
13569;DHT22;6856;51.460;7.158;2024-01-15T09:27:26;4.20;73.00
13569;DHT22;6856;51.460;7.158;2024-01-15T09:30:01;4.20;73.10
13569;DHT22;6856;51.460;7.158;2024-01-15T09:32:35;4.20;73.20
13569;DHT22;6856;51.460;7.158;2024-01-15T09:35:09;4.20;73.00
13569;DHT22;6856;51.460;7.158;2024-01-15T09:37:45;4.20;73.00
13569;DHT22;6856;51.460;7.158;2024-01-15T09:40:20;4.20;72.90
13569;DHT22;6856;51.460;7.158;2024-01-15T09:42:55;4.20;73.10
13569;DHT22;6856;51.460;7.158;2024-01-15T09:45:31;4.20;73.00
13569;DHT22;6856;51.460;7.158;2024-01-15T09:48:05;4.20;73.60
13569;DHT22;6856;51.460;7.158;2024-01-15T09:50:40;4.20;73.10
13569;DHT22;6856;51.460;7.158;2024-01-15T09:53:15;4.20;72.90
13569;DHT22;6856;51.460;7.158;2024-01-15T09:55:50;4.20;73.00
13569;DHT22;6856;51.460;7.158;2024-01-15T09:58:26;4.20;72.90
13569;DHT22;6856;51.460;7.158;2024-01-15T10:01:03;4.20;73.20
13569;DHT22;6856;51.460;7.158;2024-01-15T10:03:40;4.20;73.30
13569;DHT22;6856;51.460;7.158;2024-01-15T10:06:16;4.20;73.20
13569;DHT22;6856;51.460;7.158;2024-01-15T10:08:56;4.20;73.40
13569;DHT22;6856;51.460;7.158;2024-01-15T10:11:33;4.20;73.20
13569;DHT22;6856;51.460;7.158;2024-01-15T10:14:07;4.20;73.30
13569;DHT22;6856;51.460;7.158;2024-01-15T10:16:41;4.20;73.40
13569;DHT22;6856;51.460;7.158;2024-01-15T10:19:15;4.20;73.50
13569;DHT22;6856;51.460;7.158;2024-01-15T10:21:49;4.20;73.50
13569;DHT22;6856;51.460;7.158;2024-01-15T10:24:25;4.20;73.60
13569;DHT22;6856;51.460;7.158;2024-01-15T10:27:05;4.20;73.60
13569;DHT22;6856;51.460;7.158;2024-01-15T10:29:41;4.20;73.70
13569;DHT22;6856;51.460;7.158;2024-01-15T10:32:15;4.20;73.60
13569;DHT22;6856;51.460;7.158;2024-01-15T10:34:52;4.30;72.90
13569;DHT22;6856;51.460;7.158;2024-01-15T10:37:26;4.30;73.60
13569;DHT22;6856;51.460;7.158;2024-01-15T10:40:04;4.30;73.50
13569;DHT22;6856;51.460;7.158;2024-01-15T10:42:39;4.30;73.50
13569;DHT22;6856;51.460;7.158;2024-01-15T10:45:17;4.30;73.40
13569;DHT22;6856;51.460;7.158;2024-01-15T10:47:58;4.10;73.10
13569;DHT22;6856;51.460;7.158;2024-01-15T10:50:34;4.30;73.50
13569;DHT22;6856;51.460;7.158;2024-01-15T10:53:12;4.30;73.40
13569;DHT22;6856;51.460;7.158;2024-01-15T10:55:48;4.30;73.40
13569;DHT22;6856;51.460;7.158;2024-01-15T10:58:26;4.30;73.40
13569;DHT22;6856;51.460;7.158;2024-01-15T11:01:04;4.30;73.20
13569;DHT22;6856;51.460;7.158;2024-01-15T11:03:39;4.30;73.30
13569;DHT22;6856;51.460;7.158;2024-01-15T11:06:17;4.30;73.20
13569;DHT22;6856;51.460;7.158;2024-01-15T11:08:56;4.30;73.10
13569;DHT22;6856;51.460;7.158;2024-01-15T11:11:35;4.30;73.10
13569;DHT22;6856;51.460;7.158;2024-01-15T11:14:10;4.30;73.20
13569;DHT22;6856;51.460;7.158;2024-01-15T11:16:56;4.30;73.20
13569;DHT22;6856;51.460;7.158;2024-01-15T11:19:43;4.30;73.10
13569;DHT22;6856;51.460;7.158;2024-01-15T11:22:49;4.30;73.10
13569;DHT22;6856;51.460;7.158;2024-01-15T11:25:23;4.40;73.20
13569;DHT22;6856;51.460;7.158;2024-01-15T11:27:59;4.30;72.80
13569;DHT22;6856;51.460;7.158;2024-01-15T11:30:33;4.40;73.90
13569;DHT22;6856;51.460;7.158;2024-01-15T11:33:32;4.40;73.20
13569;DHT22;6856;51.460;7.158;2024-01-15T11:36:08;4.40;73.40
13569;DHT22;6856;51.460;7.158;2024-01-15T11:38:43;4.40;73.10
13569;DHT22;6856;51.460;7.158;2024-01-15T11:41:20;4.60;73.10
13569;DHT22;6856;51.460;7.158;2024-01-15T11:43:59;4.40;73.00
13569;DHT22;6856;51.460;7.158;2024-01-15T11:46:37;4.40;73.20
13569;DHT22;6856;51.460;7.158;2024-01-15T11:49:41;4.40;73.20
13569;DHT22;6856;51.460;7.158;2024-01-15T11:52:34;4.40;73.30
13569;DHT22;6856;51.460;7.158;2024-01-15T11:55:12;4.50;73.40
13569;DHT22;6856;51.460;7.158;2024-01-15T11:57:51;4.50;74.00
13569;DHT22;6856;51.460;7.158;2024-01-15T12:00:30;4.50;73.20
13569;DHT22;6856;51.460;7.158;2024-01-15T12:03:05;4.50;73.10
13569;DHT22;6856;51.460;7.158;2024-01-15T12:05:39;4.50;72.90
13569;DHT22;6856;51.460;7.158;2024-01-15T12:08:21;4.50;72.90
13569;DHT22;6856;51.460;7.158;2024-01-15T12:10:55;4.50;72.90
13569;DHT22;6856;51.460;7.158;2024-01-15T12:13:29;4.50;72.80
13569;DHT22;6856;51.460;7.158;2024-01-15T12:16:05;4.50;72.80
13569;DHT22;6856;51.460;7.158;2024-01-15T12:18:41;4.50;72.80
13569;DHT22;6856;51.460;7.158;2024-01-15T12:21:16;4.50;72.70
13569;DHT22;6856;51.460;7.158;2024-01-15T12:23:51;4.50;72.50
13569;DHT22;6856;51.460;7.158;2024-01-15T12:26:26;4.50;72.70
13569;DHT22;6856;51.460;7.158;2024-01-15T12:29:02;4.50;72.70
13569;DHT22;6856;51.460;7.158;2024-01-15T12:31:37;4.50;72.90
13569;DHT22;6856;51.460;7.158;2024-01-15T12:34:11;4.50;72.90
13569;DHT22;6856;51.460;7.158;2024-01-15T12:36:47;4.50;72.90
13569;DHT22;6856;51.460;7.158;2024-01-15T12:39:24;4.50;72.90
13569;DHT22;6856;51.460;7.158;2024-01-15T12:41:58;4.50;73.00
13569;DHT22;6856;51.460;7.158;2024-01-15T12:44:32;4.70;73.00
13569;DHT22;6856;51.460;7.158;2024-01-15T12:47:09;4.50;72.90
13569;DHT22;6856;51.460;7.158;2024-01-15T12:49:42;4.60;72.70
13569;DHT22;6856;51.460;7.158;2024-01-15T12:52:21;4.60;72.80
13569;DHT22;6856;51.460;7.158;2024-01-15T12:54:55;4.60;72.70
13569;DHT22;6856;51.460;7.158;2024-01-15T12:57:30;4.50;72.60
13569;DHT22;6856;51.460;7.158;2024-01-15T13:00:06;4.50;72.50
13569;DHT22;6856;51.460;7.158;2024-01-15T13:02:47;4.50;72.50
13569;DHT22;6856;51.460;7.158;2024-01-15T13:05:22;4.50;72.60
13569;DHT22;6856;51.460;7.158;2024-01-15T13:07:57;4.50;72.70
13569;DHT22;6856;51.460;7.158;2024-01-15T13:10:33;4.50;72.60
13569;DHT22;6856;51.460;7.158;2024-01-15T13:13:07;4.50;72.70
13569;DHT22;6856;51.460;7.158;2024-01-15T13:15:41;4.50;72.80
13569;DHT22;6856;51.460;7.158;2024-01-15T13:18:23;4.50;72.90
13569;DHT22;6856;51.460;7.158;2024-01-15T13:20:57;4.50;73.10
13569;DHT22;6856;51.460;7.158;2024-01-15T13:23:30;4.50;73.30
13569;DHT22;6856;51.460;7.158;2024-01-15T13:26:04;4.50;73.00
13569;DHT22;6856;51.460;7.158;2024-01-15T13:28:39;4.50;73.20
13569;DHT22;6856;51.460;7.158;2024-01-15T13:31:13;4.60;73.00
13569;DHT22;6856;51.460;7.158;2024-01-15T13:33:49;4.60;73.30
13569;DHT22;6856;51.460;7.158;2024-01-15T13:36:22;4.60;73.40
13569;DHT22;6856;51.460;7.158;2024-01-15T13:38:56;4.60;73.30
13569;DHT22;6856;51.460;7.158;2024-01-15T13:41:31;4.70;73.40
13569;DHT22;6856;51.460;7.158;2024-01-15T13:44:05;4.70;73.60
13569;DHT22;6856;51.460;7.158;2024-01-15T13:46:39;4.70;73.30
13569;DHT22;6856;51.460;7.158;2024-01-15T13:49:16;4.80;73.60
13569;DHT22;6856;51.460;7.158;2024-01-15T13:51:51;4.80;73.40
13569;DHT22;6856;51.460;7.158;2024-01-15T13:54:25;4.80;74.10
13569;DHT22;6856;51.460;7.158;2024-01-15T13:57:19;4.80;73.30
13569;DHT22;6856;51.460;7.158;2024-01-15T13:59:53;4.90;73.20
13569;DHT22;6856;51.460;7.158;2024-01-15T14:02:27;4.90;73.00
13569;DHT22;6856;51.460;7.158;2024-01-15T14:05:05;4.90;72.70
13569;DHT22;6856;51.460;7.158;2024-01-15T14:07:40;4.90;72.90
13569;DHT22;6856;51.460;7.158;2024-01-15T14:10:15;4.90;72.80
13569;DHT22;6856;51.460;7.158;2024-01-15T14:12:50;4.90;72.70
13569;DHT22;6856;51.460;7.158;2024-01-15T14:15:26;4.90;72.30
13569;DHT22;6856;51.460;7.158;2024-01-15T14:18:00;5.10;72.50
13569;DHT22;6856;51.460;7.158;2024-01-15T14:20:36;4.90;72.20
13569;DHT22;6856;51.460;7.158;2024-01-15T14:23:12;4.90;72.40
13569;DHT22;6856;51.460;7.158;2024-01-15T14:25:47;5.00;72.40
13569;DHT22;6856;51.460;7.158;2024-01-15T14:28:21;4.90;72.20
13569;DHT22;6856;51.460;7.158;2024-01-15T14:30:56;4.90;72.20
13569;DHT22;6856;51.460;7.158;2024-01-15T14:33:33;4.90;72.20
13569;DHT22;6856;51.460;7.158;2024-01-15T14:36:12;4.90;72.20
13569;DHT22;6856;51.460;7.158;2024-01-15T14:38:46;4.90;72.00
13569;DHT22;6856;51.460;7.158;2024-01-15T14:41:22;4.80;72.10
13569;DHT22;6856;51.460;7.158;2024-01-15T14:43:56;4.80;71.90
13569;DHT22;6856;51.460;7.158;2024-01-15T14:46:31;4.80;72.10
13569;DHT22;6856;51.460;7.158;2024-01-15T14:49:04;4.80;71.20
13569;DHT22;6856;51.460;7.158;2024-01-15T14:51:41;4.80;71.90
13569;DHT22;6856;51.460;7.158;2024-01-15T14:54:16;4.70;71.70
13569;DHT22;6856;51.460;7.158;2024-01-15T14:56:52;4.70;71.20
13569;DHT22;6856;51.460;7.158;2024-01-15T14:59:26;4.90;71.90
13569;DHT22;6856;51.460;7.158;2024-01-15T15:02:01;4.70;71.70
13569;DHT22;6856;51.460;7.158;2024-01-15T15:04:36;4.70;71.90
13569;DHT22;6856;51.460;7.158;2024-01-15T15:07:11;4.90;71.20
13569;DHT22;6856;51.460;7.158;2024-01-15T15:09:47;4.70;71.60
13569;DHT22;6856;51.460;7.158;2024-01-15T15:12:23;4.70;71.70
13569;DHT22;6856;51.460;7.158;2024-01-15T15:14:59;4.70;70.80
13569;DHT22;6856;51.460;7.158;2024-01-15T15:17:40;4.70;70.90
13569;DHT22;6856;51.460;7.158;2024-01-15T15:20:15;4.70;71.50
13569;DHT22;6856;51.460;7.158;2024-01-15T15:22:53;4.70;71.30
13569;DHT22;6856;51.460;7.158;2024-01-15T15:25:28;4.70;71.40
13569;DHT22;6856;51.460;7.158;2024-01-15T15:28:03;4.70;71.40
13569;DHT22;6856;51.460;7.158;2024-01-15T15:30:38;4.70;71.50
13569;DHT22;6856;51.460;7.158;2024-01-15T15:33:16;4.70;71.30
13569;DHT22;6856;51.460;7.158;2024-01-15T15:35:51;4.70;71.30
13569;DHT22;6856;51.460;7.158;2024-01-15T15:38:28;4.70;71.40
13569;DHT22;6856;51.460;7.158;2024-01-15T15:41:03;4.60;71.20
13569;DHT22;6856;51.460;7.158;2024-01-15T15:43:37;4.60;71.30
13569;DHT22;6856;51.460;7.158;2024-01-15T15:46:14;4.60;71.20
13569;DHT22;6856;51.460;7.158;2024-01-15T15:48:50;4.60;71.40
13569;DHT22;6856;51.460;7.158;2024-01-15T15:51:24;4.60;71.30
13569;DHT22;6856;51.460;7.158;2024-01-15T15:54:01;4.60;71.40
13569;DHT22;6856;51.460;7.158;2024-01-15T15:56:37;4.60;71.20
13569;DHT22;6856;51.460;7.158;2024-01-15T15:59:11;4.60;71.30
13569;DHT22;6856;51.460;7.158;2024-01-15T16:01:48;4.60;71.30
13569;DHT22;6856;51.460;7.158;2024-01-15T16:04:28;4.60;71.30
13569;DHT22;6856;51.460;7.158;2024-01-15T16:07:02;4.60;71.10
13569;DHT22;6856;51.460;7.158;2024-01-15T16:09:44;4.60;71.20
13569;DHT22;6856;51.460;7.158;2024-01-15T16:12:18;4.60;71.20
13569;DHT22;6856;51.460;7.158;2024-01-15T16:14:53;4.60;71.00
13569;DHT22;6856;51.460;7.158;2024-01-15T16:17:30;4.50;70.90
13569;DHT22;6856;51.460;7.158;2024-01-15T16:20:27;4.70;69.40
13569;DHT22;6856;51.460;7.158;2024-01-15T16:23:21;4.50;70.80
13569;DHT22;6856;51.460;7.158;2024-01-15T16:26:17;4.50;70.30
13569;DHT22;6856;51.460;7.158;2024-01-15T16:28:52;4.50;70.50
13569;DHT22;6856;51.460;7.158;2024-01-15T16:31:29;4.50;70.50
13569;DHT22;6856;51.460;7.158;2024-01-15T16:34:04;4.40;70.70
13569;DHT22;6856;51.460;7.158;2024-01-15T16:36:44;4.40;70.60
13569;DHT22;6856;51.460;7.158;2024-01-15T16:39:18;4.40;70.90
13569;DHT22;6856;51.460;7.158;2024-01-15T16:41:54;4.40;70.50
13569;DHT22;6856;51.460;7.158;2024-01-15T16:44:28;4.40;70.80
13569;DHT22;6856;51.460;7.158;2024-01-15T16:47:03;4.40;70.70
13569;DHT22;6856;51.460;7.158;2024-01-15T16:49:41;4.40;70.90
13569;DHT22;6856;51.460;7.158;2024-01-15T16:52:15;4.40;70.80
13569;DHT22;6856;51.460;7.158;2024-01-15T16:54:49;4.30;70.00
13569;DHT22;6856;51.460;7.158;2024-01-15T16:57:24;4.30;70.20